createdAt,value
2019-02-15T00:00:14.480Z,-3.44
2019-02-15T00:01:14.489Z,-3.46
2019-02-15T00:02:14.466Z,-3.39
2019-02-15T00:03:14.494Z,-3.50
2019-02-15T00:04:14.443Z,-3.54
2019-02-15T00:05:14.437Z,-3.54
2019-02-15T00:06:14.427Z,-3.44
2019-02-15T00:07:14.427Z,-3.49
2019-02-15T00:08:14.410Z,-3.49
2019-02-15T00:09:14.528Z,-3.57
2019-02-15T00:10:14.386Z,-3.56
2019-02-15T00:11:14.405Z,-3.70
2019-02-15T00:12:14.370Z,-3.76
2019-02-15T00:13:14.356Z,-3.81
2019-02-15T00:14:14.340Z,-3.80
2019-02-15T00:15:14.331Z,-3.87
2019-02-15T00:16:14.357Z,-3.93
2019-02-15T00:17:14.312Z,-4.07
2019-02-15T00:18:14.312Z,-4.05
2019-02-15T00:19:14.295Z,-4.02
2019-02-15T00:20:14.289Z,-4.02
2019-02-15T00:21:14.315Z,-3.84
2019-02-15T00:22:14.267Z,-3.75
2019-02-15T00:23:14.253Z,-3.78
2019-02-15T00:24:14.258Z,-3.65
2019-02-15T00:25:14.238Z,-3.71
2019-02-15T00:26:14.263Z,-3.68
2019-02-15T00:27:14.220Z,-3.75
2019-02-15T00:28:14.209Z,-3.70
2019-02-15T00:29:14.199Z,-3.72
2019-02-15T00:30:14.183Z,-3.86
2019-02-15T00:31:14.212Z,-3.81
2019-02-15T00:32:14.168Z,-3.76
2019-02-15T00:33:14.169Z,-3.70
2019-02-15T00:34:14.152Z,-3.72
2019-02-15T00:35:14.139Z,-3.75
2019-02-15T00:36:14.163Z,-3.76
2019-02-15T00:37:14.123Z,-3.72
2019-02-15T00:38:14.115Z,-3.76
2019-02-15T00:39:14.096Z,-3.83
2019-02-15T00:40:14.096Z,-3.90
2019-02-15T00:41:14.142Z,-3.83
2019-02-15T00:42:14.107Z,-3.81
2019-02-15T00:43:21.941Z,-3.89
2019-02-15T00:44:15.047Z,-3.98
2019-02-15T00:45:14.037Z,-4.04
2019-02-15T00:46:14.066Z,-4.01
2019-02-15T00:47:14.014Z,-3.99
2019-02-15T00:48:14.005Z,-4.04
2019-02-15T00:49:14.001Z,-4.08
2019-02-15T00:50:13.998Z,-4.19
2019-02-15T00:51:14.021Z,-4.12
2019-02-15T00:52:13.976Z,-4.18
2019-02-15T00:53:13.971Z,-4.20
2019-02-15T00:54:13.943Z,-4.18
2019-02-15T00:55:14.008Z,-4.30
2019-02-15T00:56:13.922Z,-4.44
2019-02-15T00:57:13.917Z,-4.47
2019-02-15T00:58:13.903Z,-4.48
2019-02-15T00:59:13.895Z,-4.43
2019-02-15T01:00:13.971Z,-4.54
2019-02-15T01:01:14.033Z,-4.61
2019-02-15T01:02:13.873Z,-4.65
2019-02-15T01:03:13.891Z,-4.64
2019-02-15T01:04:13.884Z,-4.69
2019-02-15T01:05:13.837Z,-4.65
2019-02-15T01:06:13.835Z,-4.65
2019-02-15T01:07:13.823Z,-4.65
2019-02-15T01:08:13.819Z,-4.57
2019-02-15T01:09:13.830Z,-4.48
2019-02-15T01:10:13.783Z,-4.40
2019-02-15T01:11:13.783Z,-4.38
2019-02-15T01:12:13.826Z,-4.41
2019-02-15T01:13:13.754Z,-4.40
2019-02-15T01:14:13.745Z,-4.47
2019-02-15T01:15:13.741Z,-4.38
2019-02-15T01:16:13.757Z,-4.33
2019-02-15T01:17:13.744Z,-4.37
2019-02-15T01:18:13.713Z,-4.40
2019-02-15T01:19:13.703Z,-4.40
2019-02-15T01:20:13.693Z,-4.40
2019-02-15T01:21:13.679Z,-4.36
2019-02-15T01:22:13.711Z,-4.47
2019-02-15T01:23:13.664Z,-4.40
2019-02-15T01:24:13.654Z,-4.43
2019-02-15T01:25:13.649Z,-4.48
2019-02-15T01:26:13.639Z,-4.38
2019-02-15T01:27:13.662Z,-4.41
2019-02-15T01:28:13.622Z,-4.50
2019-02-15T01:29:13.600Z,-4.50
2019-02-15T01:30:13.600Z,-4.51
2019-02-15T01:31:13.575Z,-4.55
2019-02-15T01:32:13.601Z,-4.80
2019-02-15T01:33:13.570Z,-4.65
2019-02-15T01:34:13.599Z,-4.58
2019-02-15T01:35:13.562Z,-4.43
2019-02-15T01:36:13.532Z,-4.51
2019-02-15T01:37:13.561Z,-4.38
2019-02-15T01:38:13.506Z,-4.54
2019-02-15T01:39:13.500Z,-4.57
2019-02-15T01:40:13.493Z,-4.50
2019-02-15T01:41:13.493Z,-4.33
2019-02-15T01:42:14.447Z,-4.26
2019-02-15T01:43:13.471Z,-4.28
2019-02-15T01:44:13.460Z,-4.25
2019-02-15T01:45:13.451Z,-4.33
2019-02-15T01:46:13.428Z,-4.22
2019-02-15T01:47:13.465Z,-4.20
2019-02-15T01:48:13.411Z,-4.19
2019-02-15T01:49:13.402Z,-4.20
2019-02-15T01:50:13.438Z,-4.20
2019-02-15T01:51:13.388Z,-4.11
2019-02-15T01:52:13.406Z,-4.18
2019-02-15T01:53:13.364Z,-4.18
2019-02-15T01:54:13.353Z,-4.30
2019-02-15T01:55:13.343Z,-4.36
2019-02-15T01:56:13.371Z,-4.47
2019-02-15T01:57:13.326Z,-4.50
2019-02-15T01:58:13.323Z,-4.61
2019-02-15T01:59:13.300Z,-4.68
2019-02-15T02:00:13.346Z,-4.79
2019-02-15T02:01:13.293Z,-4.69
2019-02-15T02:02:13.350Z,-4.76
2019-02-15T02:03:13.275Z,-4.66
2019-02-15T02:04:13.255Z,-4.66
2019-02-15T02:05:13.279Z,-4.75
2019-02-15T02:06:13.987Z,-4.73
2019-02-15T02:07:13.369Z,-4.71
2019-02-15T02:08:13.218Z,-4.69
2019-02-15T02:09:13.207Z,-4.65
2019-02-15T02:10:13.978Z,-4.55
2019-02-15T02:11:13.182Z,-4.66
2019-02-15T02:12:13.419Z,-4.73
2019-02-15T02:13:13.172Z,-4.79
2019-02-15T02:14:13.163Z,-4.89
2019-02-15T02:15:13.146Z,-4.95
2019-02-15T02:16:13.131Z,-5.08
2019-02-15T02:17:13.126Z,-5.11
2019-02-15T02:18:13.177Z,-5.23
2019-02-15T02:19:13.118Z,-5.34
2019-02-15T02:20:13.089Z,-5.40
2019-02-15T02:21:13.088Z,-5.34
2019-02-15T02:22:13.174Z,-5.34
2019-02-15T02:23:13.098Z,-5.23
2019-02-15T02:24:13.052Z,-5.08
2019-02-15T02:25:13.068Z,-5.05
2019-02-15T02:26:13.040Z,-5.07
2019-02-15T02:27:13.028Z,-5.14
2019-02-15T02:28:13.060Z,-5.22
2019-02-15T02:29:13.022Z,-5.30
2019-02-15T02:30:12.992Z,-5.33
2019-02-15T02:31:12.999Z,-5.31
2019-02-15T02:32:12.975Z,-5.34
2019-02-15T02:33:13.000Z,-5.38
2019-02-15T02:34:12.956Z,-5.47
2019-02-15T02:35:12.951Z,-5.47
2019-02-15T02:36:12.933Z,-5.56
2019-02-15T02:37:12.922Z,-5.59
2019-02-15T02:38:12.964Z,-5.55
2019-02-15T02:39:12.915Z,-5.54
2019-02-15T02:40:12.888Z,-5.54
2019-02-15T02:41:12.893Z,-5.49
2019-02-15T02:42:12.880Z,-5.52
2019-02-15T02:43:12.925Z,-5.41
2019-02-15T02:44:12.850Z,-5.43
2019-02-15T02:45:12.850Z,-5.52
2019-02-15T02:46:12.833Z,-5.62
2019-02-15T02:47:12.829Z,-5.43
2019-02-15T02:48:13.046Z,-5.59
2019-02-15T02:49:12.808Z,-5.62
2019-02-15T02:50:12.793Z,-5.74
2019-02-15T02:51:12.793Z,-5.73
2019-02-15T02:52:12.771Z,-5.67
2019-02-15T02:53:12.769Z,-5.72
2019-02-15T02:54:12.788Z,-5.76
2019-02-15T02:55:12.750Z,-5.74
2019-02-15T02:56:12.733Z,-5.77
2019-02-15T02:57:12.756Z,-5.80
2019-02-15T02:58:12.746Z,-5.76
2019-02-15T02:59:12.707Z,-5.69
2019-02-15T03:00:12.791Z,-5.74
2019-02-15T03:01:12.680Z,-5.73
2019-02-15T03:02:12.675Z,-5.72
2019-02-15T03:03:12.697Z,-5.73
2019-02-15T03:04:12.650Z,-5.82
2019-02-15T03:05:12.652Z,-5.87
2019-02-15T03:06:12.629Z,-5.80
2019-02-15T03:07:12.623Z,-5.76
2019-02-15T03:08:13.415Z,-5.63
2019-02-15T03:09:12.603Z,-5.70
2019-02-15T03:10:12.593Z,-5.52
2019-02-15T03:11:12.821Z,-5.38
2019-02-15T03:12:12.798Z,-5.33
2019-02-15T03:13:13.031Z,-5.31
2019-02-15T03:14:12.781Z,-5.33
2019-02-15T03:15:12.779Z,-5.33
2019-02-15T03:16:12.775Z,-5.35
2019-02-15T03:17:12.763Z,-5.37
2019-02-15T03:18:12.952Z,-5.33
2019-02-15T03:19:12.713Z,-5.23
2019-02-15T03:20:12.914Z,-5.16
2019-02-15T03:21:12.724Z,-5.23
2019-02-15T03:22:12.751Z,-5.38
2019-02-15T03:23:12.733Z,-5.33
2019-02-15T03:24:12.755Z,-5.20
2019-02-15T03:25:12.702Z,-5.25
2019-02-15T03:26:12.913Z,-5.25
2019-02-15T03:27:12.531Z,-5.26
2019-02-15T03:28:12.543Z,-5.30
2019-02-15T03:29:12.448Z,-5.25
2019-02-15T03:30:12.459Z,-5.40
2019-02-15T03:31:12.433Z,-5.25
2019-02-15T03:32:12.465Z,-5.19
2019-02-15T03:33:12.514Z,-5.08
2019-02-15T03:34:12.409Z,-4.97
2019-02-15T03:35:12.390Z,-4.86
2019-02-15T03:36:12.377Z,-4.86
2019-02-15T03:37:12.365Z,-4.80
2019-02-15T03:38:12.473Z,-4.71
2019-02-15T03:39:12.362Z,-4.76
2019-02-15T03:40:12.348Z,-4.66
2019-02-15T03:41:12.335Z,-4.79
2019-02-15T03:42:12.315Z,-4.75
2019-02-15T03:43:12.387Z,-4.73
2019-02-15T03:44:21.669Z,-4.87
2019-02-15T03:45:13.284Z,-4.86
2019-02-15T03:46:12.285Z,-4.98
2019-02-15T03:47:12.278Z,-5.01
2019-02-15T03:48:12.365Z,-5.16
2019-02-15T03:49:12.265Z,-5.27
2019-02-15T03:50:12.240Z,-5.41
2019-02-15T03:51:12.222Z,-5.55
2019-02-15T03:52:12.230Z,-5.59
2019-02-15T03:53:12.213Z,-5.72
2019-02-15T03:54:12.283Z,-5.70
2019-02-15T03:55:12.196Z,-5.74
2019-02-15T03:56:12.188Z,-5.72
2019-02-15T03:57:12.188Z,-5.69
2019-02-15T03:58:12.162Z,-5.62
2019-02-15T03:59:12.243Z,-5.59
2019-02-15T04:00:12.157Z,-5.63
2019-02-15T04:01:12.132Z,-5.62
2019-02-15T04:02:12.131Z,-5.44
2019-02-15T04:03:12.118Z,-5.45
2019-02-15T04:04:12.178Z,-5.37
2019-02-15T04:05:12.092Z,-5.38
2019-02-15T04:06:12.086Z,-5.41
2019-02-15T04:07:12.057Z,-5.56
2019-02-15T04:08:12.070Z,-5.52
2019-02-15T04:09:12.159Z,-5.54
2019-02-15T04:10:12.053Z,-5.62
2019-02-15T04:11:12.034Z,-5.54
2019-02-15T04:12:12.022Z,-5.45
2019-02-15T04:13:12.029Z,-5.40
2019-02-15T04:14:12.089Z,-5.27
2019-02-15T04:15:12.003Z,-5.38
2019-02-15T04:16:11.987Z,-5.45
2019-02-15T04:17:11.981Z,-5.58
2019-02-15T04:18:11.966Z,-5.70
2019-02-15T04:19:12.023Z,-5.74
2019-02-15T04:20:11.937Z,-5.87
2019-02-15T04:21:11.943Z,-5.95
2019-02-15T04:22:11.939Z,-5.98
2019-02-15T04:23:11.926Z,-6.08
2019-02-15T04:24:13.503Z,-6.12
2019-02-15T04:25:11.890Z,-6.09
2019-02-15T04:26:11.883Z,-6.06
2019-02-15T04:27:11.866Z,-6.19
2019-02-15T04:28:11.876Z,-6.26
2019-02-15T04:29:11.942Z,-6.27
2019-02-15T04:30:11.844Z,-6.30
2019-02-15T04:31:12.462Z,-6.29
2019-02-15T04:32:11.819Z,-6.37
2019-02-15T04:33:11.815Z,-6.36
2019-02-15T04:34:11.892Z,-6.31
2019-02-15T04:35:11.793Z,-6.21
2019-02-15T04:36:11.794Z,-6.19
2019-02-15T04:37:11.779Z,-6.24
2019-02-15T04:38:11.757Z,-6.16
2019-02-15T04:39:11.884Z,-6.19
2019-02-15T04:40:11.745Z,-6.24
2019-02-15T04:41:11.740Z,-6.21
2019-02-15T04:42:11.729Z,-6.21
2019-02-15T04:43:11.745Z,-6.27
2019-02-15T04:44:11.780Z,-6.36
2019-02-15T04:45:11.704Z,-6.44
2019-02-15T04:46:11.682Z,-6.55
2019-02-15T04:47:11.701Z,-6.52
2019-02-15T04:48:11.670Z,-6.67
2019-02-15T04:49:11.744Z,-6.67
2019-02-15T04:50:11.651Z,-6.52
2019-02-15T04:51:11.635Z,-6.51
2019-02-15T04:52:11.632Z,-6.55
2019-02-15T04:53:11.626Z,-6.54
2019-02-15T04:54:11.678Z,-6.51
2019-02-15T04:55:11.599Z,-6.50
2019-02-15T04:56:11.589Z,-6.54
2019-02-15T04:57:11.574Z,-6.58
2019-02-15T04:58:11.558Z,-6.69
2019-02-15T04:59:11.624Z,-6.66
2019-02-15T05:00:11.561Z,-6.73
2019-02-15T05:01:11.540Z,-6.70
2019-02-15T05:02:11.516Z,-6.73
2019-02-15T05:03:11.516Z,-6.70
2019-02-15T05:04:11.563Z,-6.76
2019-02-15T05:05:11.498Z,-6.76
2019-02-15T05:06:11.450Z,-6.77
2019-02-15T05:07:11.438Z,-6.70
2019-02-15T05:08:11.427Z,-6.58
2019-02-15T05:09:11.447Z,-6.50
2019-02-15T05:10:11.400Z,-6.47
2019-02-15T05:11:11.392Z,-6.54
2019-02-15T05:12:11.380Z,-6.55
2019-02-15T05:13:11.370Z,-6.54
2019-02-15T05:14:11.392Z,-6.37
2019-02-15T05:15:11.358Z,-6.26
2019-02-15T05:16:11.341Z,-6.13
2019-02-15T05:17:11.342Z,-6.08
2019-02-15T05:18:11.335Z,-6.06
2019-02-15T05:19:11.353Z,-6.05
2019-02-15T05:20:11.304Z,-6.09
2019-02-15T05:21:12.893Z,-6.16
2019-02-15T05:22:11.287Z,-6.12
2019-02-15T05:23:11.278Z,-6.16
2019-02-15T05:24:11.314Z,-6.24
2019-02-15T05:25:11.302Z,-6.40
2019-02-15T05:26:11.278Z,-6.47
2019-02-15T05:27:11.236Z,-6.54
2019-02-15T05:28:11.259Z,-6.52
2019-02-15T05:29:11.260Z,-6.63
2019-02-15T05:30:11.206Z,-6.55
2019-02-15T05:31:11.203Z,-6.42
2019-02-15T05:32:11.215Z,-6.37
2019-02-15T05:33:11.182Z,-6.24
2019-02-15T05:34:11.199Z,-6.05
2019-02-15T05:35:11.194Z,-5.79
2019-02-15T05:36:11.165Z,-5.84
2019-02-15T05:37:11.147Z,-5.65
2019-02-15T05:38:11.136Z,-5.76
2019-02-15T05:39:11.118Z,-5.73
2019-02-15T05:40:11.210Z,-5.79
2019-02-15T05:41:11.115Z,-5.83
2019-02-15T05:42:11.094Z,-5.83
2019-02-15T05:43:11.093Z,-5.94
2019-02-15T05:44:11.078Z,-5.94
2019-02-15T05:45:11.091Z,-5.98
2019-02-15T05:46:11.056Z,-5.87
2019-02-15T05:47:11.046Z,-5.91
2019-02-15T05:48:11.046Z,-6.09
2019-02-15T05:49:11.023Z,-6.13
2019-02-15T05:50:11.063Z,-6.21
2019-02-15T05:51:11.050Z,-6.27
2019-02-15T05:52:10.996Z,-6.31
2019-02-15T05:53:10.985Z,-6.42
2019-02-15T05:54:11.181Z,-6.50
2019-02-15T05:55:11.088Z,-6.61
2019-02-15T05:56:10.953Z,-6.44
2019-02-15T05:57:10.956Z,-6.37
2019-02-15T05:58:10.937Z,-6.27
2019-02-15T05:59:10.926Z,-6.24
2019-02-15T06:00:10.947Z,-6.27
2019-02-15T06:01:10.904Z,-6.26
2019-02-15T06:02:10.915Z,-6.29
2019-02-15T06:03:10.896Z,-6.27
2019-02-15T06:04:10.887Z,-6.34
2019-02-15T06:05:10.902Z,-6.39
2019-02-15T06:06:10.857Z,-6.48
2019-02-15T06:07:10.847Z,-6.51
2019-02-15T06:08:10.842Z,-6.67
2019-02-15T06:09:10.827Z,-6.58
2019-02-15T06:10:10.863Z,-6.66
2019-02-15T06:11:10.815Z,-6.64
2019-02-15T06:12:10.802Z,-6.64
2019-02-15T06:13:10.800Z,-6.64
2019-02-15T06:14:10.782Z,-6.67
2019-02-15T06:15:15.246Z,-6.70
2019-02-15T06:16:10.800Z,-6.79
2019-02-15T06:17:10.753Z,-6.84
2019-02-15T06:18:10.772Z,-6.90
2019-02-15T06:19:10.732Z,-6.81
2019-02-15T06:20:10.728Z,-6.61
2019-02-15T06:21:10.717Z,-6.50
2019-02-15T06:22:10.759Z,-6.40
2019-02-15T06:23:10.694Z,-6.31
2019-02-15T06:24:10.695Z,-6.37
2019-02-15T06:25:10.680Z,-6.40
2019-02-15T06:26:10.665Z,-6.40
2019-02-15T06:27:10.694Z,-6.39
2019-02-15T06:28:10.684Z,-6.52
2019-02-15T06:29:10.642Z,-6.54
2019-02-15T06:30:10.626Z,-6.63
2019-02-15T06:31:10.624Z,-6.69
2019-02-15T06:32:10.665Z,-6.69
2019-02-15T06:33:10.598Z,-6.79
2019-02-15T06:34:10.598Z,-6.71
2019-02-15T06:35:10.573Z,-6.77
2019-02-15T06:36:10.566Z,-6.82
2019-02-15T06:37:10.558Z,-6.97
2019-02-15T06:38:11.006Z,-6.88
2019-02-15T06:39:10.542Z,-6.81
2019-02-15T06:40:10.572Z,-6.77
2019-02-15T06:41:12.337Z,-6.73
2019-02-15T06:42:10.515Z,-6.85
2019-02-15T06:43:10.509Z,-6.84
2019-02-15T06:44:10.500Z,-6.77
2019-02-15T06:45:10.506Z,-6.84
2019-02-15T06:46:10.499Z,-6.84
2019-02-15T06:47:10.504Z,-6.85
2019-02-15T06:48:10.451Z,-6.94
2019-02-15T06:49:10.448Z,-6.90
2019-02-15T06:50:10.500Z,-6.88
2019-02-15T06:51:10.431Z,-6.84
2019-02-15T06:52:10.421Z,-6.81
2019-02-15T06:53:10.400Z,-6.71
2019-02-15T06:54:10.391Z,-6.74
2019-02-15T06:55:10.411Z,-6.70
2019-02-15T06:56:10.368Z,-6.71
2019-02-15T06:57:10.364Z,-6.77
2019-02-15T06:58:10.358Z,-6.77
2019-02-15T06:59:10.350Z,-6.58
2019-02-15T07:00:10.475Z,-6.61
2019-02-15T07:01:10.334Z,-6.58
2019-02-15T07:02:10.338Z,-6.58
2019-02-15T07:03:10.308Z,-6.58
2019-02-15T07:04:10.298Z,-6.54
2019-02-15T07:05:10.314Z,-6.37
2019-02-15T07:06:10.285Z,-6.29
2019-02-15T07:07:10.281Z,-6.37
2019-02-15T07:08:10.263Z,-6.36
2019-02-15T07:09:10.257Z,-6.39
2019-02-15T07:10:10.279Z,-6.34
2019-02-15T07:11:10.234Z,-6.47
2019-02-15T07:12:10.217Z,-6.40
2019-02-15T07:13:10.207Z,-6.31
2019-02-15T07:14:10.198Z,-6.15
2019-02-15T07:15:10.234Z,-5.82
2019-02-15T07:16:10.213Z,-5.40
2019-02-15T07:17:10.173Z,-4.83
2019-02-15T07:18:10.193Z,-4.57
2019-02-15T07:19:10.153Z,-4.29
2019-02-15T07:20:10.162Z,-4.18
2019-02-15T07:21:10.127Z,-4.18
2019-02-15T07:22:10.121Z,-4.26
2019-02-15T07:23:10.110Z,-4.48
2019-02-15T07:24:10.108Z,-4.66
2019-02-15T07:25:10.123Z,-4.51
2019-02-15T07:26:10.087Z,-4.05
2019-02-15T07:27:10.078Z,-3.62
2019-02-15T07:28:10.067Z,-3.25
2019-02-15T07:29:10.053Z,-2.89
2019-02-15T07:30:10.083Z,-2.58
2019-02-15T07:31:10.059Z,-2.43
2019-02-15T07:32:10.023Z,-2.24
2019-02-15T07:33:10.014Z,-2.06
2019-02-15T07:34:10.040Z,-1.87
2019-02-15T07:35:10.004Z,-1.63
2019-02-15T07:36:09.986Z,-1.42
2019-02-15T07:37:09.974Z,-1.31
2019-02-15T07:38:09.970Z,-1.17
2019-02-15T07:39:09.950Z,-0.95
2019-02-15T07:40:09.975Z,-0.73
2019-02-15T07:41:10.074Z,-0.52
2019-02-15T07:42:09.920Z,-0.44
2019-02-15T07:43:09.913Z,-0.33
2019-02-15T07:44:10.494Z,-0.29
2019-02-15T07:45:09.896Z,0.00
2019-02-15T07:46:09.924Z,0.07
2019-02-15T07:47:09.871Z,0.33
2019-02-15T07:48:09.866Z,0.64
2019-02-15T07:49:09.850Z,0.67
2019-02-15T07:50:09.839Z,0.94
2019-02-15T07:51:10.137Z,1.06
2019-02-15T07:52:09.825Z,1.25
2019-02-15T07:53:09.818Z,1.42
2019-02-15T07:54:09.839Z,1.61
2019-02-15T07:55:09.789Z,1.62
2019-02-15T07:56:09.800Z,1.75
2019-02-15T07:57:09.827Z,1.79
2019-02-15T07:58:09.756Z,1.73
2019-02-15T07:59:09.751Z,1.79
2019-02-15T08:00:09.769Z,1.87
2019-02-15T08:01:09.750Z,2.17
2019-02-15T08:02:09.720Z,2.22
2019-02-15T08:03:09.716Z,2.37
2019-02-15T08:04:09.713Z,2.66
2019-02-15T08:05:09.687Z,2.87
2019-02-15T08:06:09.703Z,2.85
2019-02-15T08:07:09.666Z,3.12
2019-02-15T08:08:09.661Z,3.07
2019-02-15T08:09:10.742Z,3.02
2019-02-15T08:10:09.647Z,3.16
2019-02-15T08:11:09.670Z,3.39
2019-02-15T08:12:09.620Z,3.71
2019-02-15T08:13:09.656Z,3.88
2019-02-15T08:14:14.899Z,3.98
2019-02-15T08:15:10.587Z,4.00
2019-02-15T08:16:09.602Z,4.08
2019-02-15T08:17:09.570Z,4.07
2019-02-15T08:18:09.553Z,4.07
2019-02-15T08:19:09.539Z,4.18
2019-02-15T08:20:09.531Z,4.18
2019-02-15T08:21:09.547Z,4.21
2019-02-15T08:22:09.509Z,4.46
2019-02-15T08:23:09.506Z,4.46
2019-02-15T08:24:09.496Z,4.70
2019-02-15T08:25:09.486Z,4.86
2019-02-15T08:26:09.558Z,5.05
2019-02-15T08:27:09.474Z,5.27
2019-02-15T08:28:09.448Z,5.31
2019-02-15T08:29:09.440Z,5.38
2019-02-15T08:30:09.434Z,5.41
2019-02-15T08:31:09.435Z,5.46
2019-02-15T08:32:09.426Z,5.55
2019-02-15T08:33:09.396Z,5.63
2019-02-15T08:34:09.917Z,5.74
2019-02-15T08:35:09.947Z,5.81
2019-02-15T08:36:09.390Z,5.74
2019-02-15T08:37:09.362Z,5.81
2019-02-15T08:38:09.350Z,5.78
2019-02-15T08:39:09.336Z,5.77
2019-02-15T08:40:09.338Z,5.89
2019-02-15T08:41:09.955Z,6.00
2019-02-15T08:42:09.309Z,6.06
2019-02-15T08:43:09.294Z,6.40
2019-02-15T08:44:09.920Z,6.68
2019-02-15T08:45:09.274Z,6.94
2019-02-15T08:46:09.493Z,7.08
2019-02-15T08:47:09.259Z,7.31
2019-02-15T08:48:09.300Z,7.32
2019-02-15T08:49:09.957Z,7.40
2019-02-15T08:50:09.954Z,7.50
2019-02-15T08:51:09.962Z,7.53
2019-02-15T08:52:09.308Z,7.55
2019-02-15T08:53:09.929Z,7.81
2019-02-15T08:54:09.924Z,7.87
2019-02-15T08:55:09.182Z,8.17
2019-02-15T08:56:09.918Z,8.35
2019-02-15T08:57:09.155Z,8.54
2019-02-15T08:58:09.141Z,8.75
2019-02-15T08:59:09.132Z,8.87
2019-02-15T09:00:09.123Z,8.86
2019-02-15T09:01:09.160Z,8.78
2019-02-15T09:02:09.105Z,8.84
2019-02-15T09:03:09.952Z,8.71
2019-02-15T09:04:09.091Z,8.72
2019-02-15T09:05:09.093Z,8.69
2019-02-15T09:06:09.101Z,8.69
2019-02-15T09:07:09.086Z,8.76
2019-02-15T09:08:09.034Z,8.79
2019-02-15T09:09:09.030Z,8.78
2019-02-15T09:10:09.035Z,8.94
2019-02-15T09:11:09.011Z,8.99
2019-02-15T09:12:09.022Z,9.02
2019-02-15T09:13:08.978Z,9.23
2019-02-15T09:14:08.972Z,9.46
2019-02-15T09:15:09.044Z,9.73
2019-02-15T09:16:10.598Z,9.93
2019-02-15T09:17:08.988Z,10.10
2019-02-15T09:18:08.938Z,10.42
2019-02-15T09:19:08.926Z,10.71
2019-02-15T09:20:08.916Z,10.94
2019-02-15T09:21:08.899Z,10.98
2019-02-15T09:22:09.110Z,11.09
2019-02-15T09:23:08.885Z,11.17
2019-02-15T09:24:08.865Z,11.24
2019-02-15T09:25:08.863Z,11.29
2019-02-15T09:26:17.813Z,11.38
2019-02-15T09:27:09.874Z,11.44
2019-02-15T09:28:08.824Z,11.49
2019-02-15T09:29:08.820Z,11.54
2019-02-15T09:30:08.807Z,11.82
2019-02-15T09:31:08.793Z,11.82
2019-02-15T09:32:08.819Z,12.04
2019-02-15T09:33:08.777Z,12.16
2019-02-15T09:34:08.764Z,12.11
2019-02-15T09:35:08.785Z,12.23
2019-02-15T09:36:08.756Z,12.51
2019-02-15T09:37:08.775Z,12.71
2019-02-15T09:38:08.729Z,12.92
2019-02-15T09:39:08.727Z,12.87
2019-02-15T09:40:08.701Z,12.95
2019-02-15T09:41:08.696Z,12.85
2019-02-15T09:42:08.712Z,12.92
2019-02-15T09:43:08.672Z,13.12
2019-02-15T09:44:08.675Z,13.44
2019-02-15T09:45:08.656Z,13.54
2019-02-15T09:46:08.637Z,13.62
2019-02-15T09:47:08.655Z,13.69
2019-02-15T09:48:08.617Z,13.67
2019-02-15T09:49:08.602Z,13.67
2019-02-15T09:50:09.733Z,13.67
2019-02-15T09:51:08.595Z,13.52
2019-02-15T09:52:08.600Z,13.51
2019-02-15T09:53:08.578Z,13.59
2019-02-15T09:54:08.563Z,13.80
2019-02-15T09:55:08.542Z,13.74
2019-02-15T09:56:08.531Z,13.70
2019-02-15T09:57:08.553Z,13.84
2019-02-15T09:58:08.517Z,14.10
2019-02-15T09:59:08.513Z,14.25
2019-02-15T10:00:08.498Z,14.53
2019-02-15T10:01:08.474Z,14.37
2019-02-15T10:02:08.511Z,14.52
2019-02-15T10:03:08.452Z,14.69
2019-02-15T10:04:08.444Z,14.86
2019-02-15T10:05:08.433Z,14.60
2019-02-15T10:06:08.426Z,14.44
2019-02-15T10:07:08.445Z,14.52
2019-02-15T10:08:08.399Z,14.65
2019-02-15T10:09:08.388Z,14.67
2019-02-15T10:10:08.406Z,14.87
2019-02-15T10:11:08.375Z,14.86
2019-02-15T10:12:08.386Z,15.05
2019-02-15T10:13:08.957Z,14.65
2019-02-15T10:14:08.344Z,14.32
2019-02-15T10:15:08.365Z,14.52
2019-02-15T10:16:08.346Z,14.95
2019-02-15T10:17:08.309Z,15.33
2019-02-15T10:18:08.291Z,15.66
2019-02-15T10:19:08.287Z,15.09
2019-02-15T10:20:08.271Z,15.12
2019-02-15T10:21:09.001Z,15.02
2019-02-15T10:22:08.255Z,15.24
2019-02-15T10:23:08.295Z,15.57
2019-02-15T10:24:08.262Z,15.59
2019-02-15T10:25:08.243Z,15.28
2019-02-15T10:26:08.237Z,15.28
2019-02-15T10:27:08.197Z,15.41
2019-02-15T10:28:08.189Z,15.81
2019-02-15T10:29:08.176Z,15.97
2019-02-15T10:30:08.195Z,15.92
2019-02-15T10:31:08.159Z,16.09
2019-02-15T10:32:08.151Z,16.38
2019-02-15T10:33:08.958Z,16.60
2019-02-15T10:34:08.136Z,16.55
2019-02-15T10:35:08.181Z,16.44
2019-02-15T10:36:08.125Z,16.30
2019-02-15T10:37:08.089Z,16.60
2019-02-15T10:38:08.087Z,16.63
2019-02-15T10:39:08.086Z,16.95
2019-02-15T10:40:08.102Z,17.36
2019-02-15T10:41:08.074Z,17.22
2019-02-15T10:42:08.094Z,16.65
2019-02-15T10:43:08.035Z,16.00
2019-02-15T10:44:08.012Z,16.49
2019-02-15T10:45:08.034Z,16.92
2019-02-15T10:46:08.966Z,17.29
2019-02-15T10:47:14.276Z,17.57
2019-02-15T10:48:10.700Z,17.63
2019-02-15T10:49:08.006Z,17.66
2019-02-15T10:50:07.953Z,17.48
2019-02-15T10:51:07.970Z,16.95
2019-02-15T10:52:07.950Z,16.58
2019-02-15T10:53:08.473Z,17.00
2019-02-15T10:54:07.951Z,17.57
2019-02-15T10:55:07.942Z,17.22
2019-02-15T10:56:07.889Z,16.86
2019-02-15T10:57:07.878Z,17.03
2019-02-15T10:58:07.871Z,17.59
2019-02-15T10:59:07.860Z,17.88
2019-02-15T11:00:07.915Z,18.24
2019-02-15T11:01:07.856Z,17.43
2019-02-15T11:02:07.828Z,16.68
2019-02-15T11:03:07.811Z,16.14
2019-02-15T11:04:07.827Z,16.67
2019-02-15T11:05:07.801Z,17.14
2019-02-15T11:06:07.836Z,17.35
2019-02-15T11:07:07.776Z,17.44
2019-02-15T11:08:07.751Z,17.25
2019-02-15T11:09:07.746Z,16.68
2019-02-15T11:10:07.743Z,16.73
2019-02-15T11:11:07.768Z,16.78
2019-02-15T11:12:07.717Z,17.06
2019-02-15T11:13:07.706Z,17.00
2019-02-15T11:14:07.704Z,16.96
2019-02-15T11:15:07.684Z,16.68
2019-02-15T11:16:07.712Z,16.92
2019-02-15T11:17:07.672Z,17.20
2019-02-15T11:18:07.656Z,17.29
2019-02-15T11:19:07.638Z,17.78
2019-02-15T11:20:07.637Z,18.17
2019-02-15T11:21:07.678Z,18.39
2019-02-15T11:22:07.647Z,18.10
2019-02-15T11:23:07.603Z,17.44
2019-02-15T11:24:07.593Z,17.82
2019-02-15T11:25:07.591Z,18.52
2019-02-15T11:27:16.319Z,18.18
2019-02-15T11:28:18.065Z,18.13
2019-02-15T11:30:25.075Z,18.02
2019-02-15T11:31:25.791Z,17.85
2019-02-15T11:32:25.048Z,17.38
2019-02-15T11:33:25.040Z,17.57
2019-02-15T11:34:25.029Z,17.66
2019-02-15T11:35:25.014Z,17.46
2019-02-15T11:36:25.043Z,17.00
2019-02-15T11:37:25.039Z,17.47
2019-02-15T11:38:25.005Z,17.46
2019-02-15T11:39:24.978Z,17.32
2019-02-15T11:40:24.960Z,17.28
2019-02-15T11:41:24.993Z,17.47
2019-02-15T11:42:24.947Z,17.40
2019-02-15T11:43:24.942Z,17.43
2019-02-15T11:44:24.970Z,17.57
2019-02-15T11:45:24.934Z,18.09
2019-02-15T11:46:24.902Z,18.59
2019-02-15T11:47:24.923Z,18.47
2019-02-15T11:48:24.917Z,18.67
2019-02-15T11:49:24.882Z,19.01
2019-02-15T11:50:24.889Z,19.25
2019-02-15T11:51:24.892Z,19.15
2019-02-15T11:52:24.876Z,18.28
2019-02-15T11:53:24.830Z,18.42
2019-02-15T11:54:24.844Z,18.17
2019-02-15T11:55:24.811Z,18.15
2019-02-15T11:56:24.803Z,18.86
2019-02-15T11:57:24.785Z,19.17
2019-02-15T11:58:24.815Z,18.82
2019-02-15T11:59:24.780Z,18.73
2019-02-15T12:00:24.776Z,18.29
2019-02-15T12:01:26.310Z,18.73
2019-02-15T12:02:24.741Z,18.67
2019-02-15T12:03:24.730Z,18.61
2019-02-15T12:04:24.779Z,18.90
2019-02-15T12:05:24.731Z,19.48
2019-02-15T12:06:24.744Z,19.90
2019-02-15T12:07:24.710Z,19.76
2019-02-15T12:08:25.820Z,19.47
2019-02-15T12:09:24.691Z,19.31
2019-02-15T12:10:24.656Z,19.31
2019-02-15T12:11:24.639Z,18.65
2019-02-15T12:12:24.829Z,18.77
2019-02-15T12:13:24.637Z,18.59
2019-02-15T12:14:24.608Z,18.54
2019-02-15T12:15:24.606Z,18.29
2019-02-15T12:16:24.649Z,18.29
2019-02-15T12:17:25.364Z,18.27
2019-02-15T12:18:24.621Z,18.49
2019-02-15T12:19:24.606Z,18.86
2019-02-15T12:20:24.553Z,18.68
2019-02-15T12:21:25.302Z,18.19
2019-02-15T12:22:24.528Z,17.95
2019-02-15T12:23:25.293Z,17.66
2019-02-15T12:24:24.815Z,17.48
2019-02-15T12:25:24.497Z,17.66
2019-02-15T12:26:24.538Z,17.54
2019-02-15T12:28:34.255Z,18.21
2019-02-15T12:29:34.251Z,18.18
2019-02-15T12:30:34.244Z,18.04
2019-02-15T12:31:34.262Z,18.31
2019-02-15T12:32:34.223Z,18.33
2019-02-15T12:33:34.209Z,17.41
2019-02-15T12:34:34.199Z,17.53
2019-02-15T12:35:34.190Z,17.81
2019-02-15T12:36:34.173Z,17.84
2019-02-15T12:37:34.202Z,17.55
2019-02-15T12:38:34.156Z,17.57
2019-02-15T12:39:34.141Z,18.15
2019-02-15T12:40:34.126Z,18.19
2019-02-15T12:41:34.171Z,17.92
2019-02-15T12:42:36.007Z,18.29
2019-02-15T12:43:34.097Z,17.97
2019-02-15T12:44:34.094Z,17.91
2019-02-15T12:45:34.965Z,18.00
2019-02-15T12:46:34.073Z,17.94
2019-02-15T12:47:34.095Z,17.88
2019-02-15T12:48:34.045Z,17.67
2019-02-15T12:49:34.976Z,17.66
2019-02-15T12:50:35.972Z,17.54
2019-02-15T12:51:34.026Z,17.69
2019-02-15T12:52:34.036Z,17.99
2019-02-15T12:53:34.008Z,18.52
2019-02-15T12:54:34.009Z,18.97
2019-02-15T12:55:33.967Z,19.35
2019-02-15T12:56:33.973Z,19.35
2019-02-15T12:57:34.004Z,19.35
2019-02-15T12:58:33.992Z,18.79